Date,TemperatureHighF,TemperatureAvgF,TemperatureLowF,DewpointHighF,DewpointAvgF,DewpointLowF,HumidityHigh,HumidityAvg,HumidityLow,PressureMaxIn,PressureMinIn,WindSpeedMaxMPH,WindSpeedAvgMPH,GustSpeedMaxMPH,PrecipitationSumIn
2013-2-1,33.8,27.2,19.0,3.0,-6.4,-13.2,32,23,17,29.72,29.25,13,3,17,0.00
2013-2-2,29.7,23.1,14.9,-0.2,-7.5,-11.2,34,26,18,29.87,29.69,13,1,15,0.00
2013-2-3,27.7,24.2,17.1,13.1,8.1,-0.4,59,50,34,29.69,29.36,6,0,6,0.00
2013-2-4,29.7,22.6,14.5,11.8,-0.6,-8.3,59,37,21,29.60,29.36,12,2,17,0.00
2013-2-5,29.3,24.1,17.6,9.0,1.2,-3.3,51,36,28,29.66,29.57,6,0,8,0.00
2013-2-8,27.7,25.1,23.7,22.1,19.0,17.1,79,77,75,29.34,29.28,17,6,17,0.00
2013-2-9,30.2,24.7,15.8,25.3,17.4,5.7,82,74,63,29.87,29.25,15,4,15,0.00
2013-2-10,35.1,21.4,9.1,17.8,4.4,-2.9,65,49,20,30.04,29.87,12,1,12,0.00
2013-2-11,52.9,35.3,15.4,49.5,25.6,-1.7,89,68,44,29.99,29.28,10,-9,12,0.00
2013-2-12,51.8,39.7,31.5,48.7,20.5,11.7,89,48,30,29.54,29.28,13,2,17,0.00
2013-2-13,42.8,34.0,27.1,14.9,11.2,8.4,50,39,29,29.51,29.34,9,1,9,0.00
2013-2-14,45.1,33.9,26.8,12.7,8.1,1.9,47,35,18,29.63,29.36,8,1,8,0.00
2013-2-15,50.5,38.6,26.8,33.3,18.2,9.7,74,45,28,29.63,29.54,12,1,12,0.00
2013-2-16,41.0,35.7,28.2,33.3,18.5,3.7,75,51,31,29.60,29.36,8,1,8,0.00
2013-2-17,28.0,21.6,14.9,9.3,-1.3,-13.9,61,38,22,29.36,29.07,24,5,25,0.00
2013-2-18,32.0,20.6,11.7,-6.7,-12.5,-15.0,29,22,15,29.81,29.36,16,3,20,0.00
2013-2-19,47.3,35.0,17.2,41.5,13.5,-16.6,82,43,20,29.81,29.25,9,1,11,0.00
2013-2-20,46.8,32.9,24.4,41.7,10.3,-6.7,84,42,20,29.42,29.22,15,2,21,0.00
2013-2-21,34.0,27.1,22.8,5.2,1.1,-2.7,44,32,22,29.84,29.42,13,4,16,0.00
2013-2-22,39.4,30.3,19.8,12.4,7.8,4.3,54,39,24,30.01,29.87,9,1,10,0.00
2013-2-23,43.0,34.4,27.5,38.5,19.8,9.9,84,56,45,29.99,29.57,6,0,6,0.00
2013-2-24,47.3,45.0,42.8,43.7,40.8,38.3,87,85,83,29.57,29.36,6,0,6,0.00
2013-2-25,47.8,40.3,36.1,43.9,31.7,21.6,86,72,48,29.90,29.54,4,0,5,0.00
2013-2-26,46.0,40.0,34.7,40.8,24.2,14.0,83,56,29,29.99,29.81,8,0,8,0.00
2013-2-27,54.5,47.6,35.2,52.0,42.7,20.3,93,83,54,29.81,29.25,10,3,12,0.00
2013-2-28,55.4,45.3,36.9,51.8,36.9,24.6,90,74,47,29.31,29.19,4,0,6,0.00